sensor_id;sensor_type;location;lat;lon;timestamp;P1;durP1;ratioP1;P2;durP2;ratioP2
37365;SDS011;23239;51.504;7.456;2023-02-03T00:00:00;27.5;;;22.3;;
37365;SDS011;23239;51.504;7.456;2023-02-03T00:01:00;27.5;;;20.8;;
37365;SDS011;23239;51.504;7.456;2023-02-03T00:02:00;27.5;;;20.8;;
37365;SDS011;23239;51.504;7.456;2023-02-03T00:03:00;27.5;;;20.8;;
37365;SDS011;23239;51.504;7.456;2023-02-03T00:04:00;27.5;;;20.8;;
37365;SDS011;23239;51.504;7.456;2023-02-03T00:05:00;27.5;;;20.8;;
37365;SDS011;23239;51.504;7.456;2023-02-03T00:06:00;29.6;;;22.4;;
37365;SDS011;23239;51.504;7.456;2023-02-03T00:07:00;29.6;;;22.4;;
37365;SDS011;23239;51.504;7.456;2023-02-03T00:08:00;29.6;;;22.4;;
37365;SDS011;23239;51.504;7.456;2023-02-03T00:09:00;29.6;;;22.4;;
37365;SDS011;23239;51.504;7.456;2023-02-03T00:10:00;29.6;;;22.4;;
37365;SDS011;23239;51.504;7.456;2023-02-03T00:11:00;23.0;;;18.4;;
37365;SDS011;23239;51.504;7.456;2023-02-03T00:12:00;23.0;;;18.4;;
37365;SDS011;23239;51.504;7.456;2023-02-03T00:13:00;23.0;;;18.4;;
37365;SDS011;23239;51.504;7.456;2023-02-03T00:14:00;23.0;;;18.4;;
37365;SDS011;23239;51.504;7.456;2023-02-03T00:15:00;23.0;;;18.4;;
37365;SDS011;23239;51.504;7.456;2023-02-03T00:16:00;28.6;;;20.1;;
37365;SDS011;23239;51.504;7.456;2023-02-03T00:17:00;28.6;;;20.1;;
37365;SDS011;23239;51.504;7.456;2023-02-03T00:18:00;28.6;;;20.1;;
37365;SDS011;23239;51.504;7.456;2023-02-03T00:19:00;28.6;;;20.1;;
37365;SDS011;23239;51.504;7.456;2023-02-03T00:20:00;28.6;;;20.1;;
37365;SDS011;23239;51.504;7.456;2023-02-03T00:21:00;26.2;;;18.8;;
37365;SDS011;23239;51.504;7.456;2023-02-03T00:22:00;26.2;;;18.8;;
37365;SDS011;23239;51.504;7.456;2023-02-03T00:23:02;26.2;;;18.8;;
37365;SDS011;23239;51.504;7.456;2023-02-03T00:24:00;26.2;;;18.8;;
37365;SDS011;23239;51.504;7.456;2023-02-03T00:25:00;26.2;;;18.8;;
37365;SDS011;23239;51.504;7.456;2023-02-03T00:26:05;24.4;;;18.0;;
37365;SDS011;23239;51.504;7.456;2023-02-03T00:27:00;24.4;;;18.0;;
37365;SDS011;23239;51.504;7.456;2023-02-03T00:28:00;24.4;;;18.0;;
37365;SDS011;23239;51.504;7.456;2023-02-03T00:29:00;24.4;;;18.0;;
37365;SDS011;23239;51.504;7.456;2023-02-03T00:30:00;24.4;;;18.0;;
37365;SDS011;23239;51.504;7.456;2023-02-03T00:31:00;24.1;;;17.6;;
37365;SDS011;23239;51.504;7.456;2023-02-03T00:32:00;24.1;;;17.6;;
37365;SDS011;23239;51.504;7.456;2023-02-03T00:33:00;24.1;;;17.6;;
37365;SDS011;23239;51.504;7.456;2023-02-03T00:34:00;24.1;;;17.6;;
37365;SDS011;23239;51.504;7.456;2023-02-03T00:35:00;24.1;;;17.6;;
37365;SDS011;23239;51.504;7.456;2023-02-03T00:36:03;27.0;;;19.2;;
37365;SDS011;23239;51.504;7.456;2023-02-03T00:37:00;27.0;;;19.2;;
37365;SDS011;23239;51.504;7.456;2023-02-03T00:38:00;27.0;;;19.2;;
37365;SDS011;23239;51.504;7.456;2023-02-03T00:39:00;27.0;;;19.2;;
37365;SDS011;23239;51.504;7.456;2023-02-03T00:40:00;27.0;;;19.2;;
37365;SDS011;23239;51.504;7.456;2023-02-03T00:41:00;24.4;;;18.5;;
37365;SDS011;23239;51.504;7.456;2023-02-03T00:42:00;24.4;;;18.5;;
37365;SDS011;23239;51.504;7.456;2023-02-03T00:43:00;24.4;;;18.5;;
37365;SDS011;23239;51.504;7.456;2023-02-03T00:44:00;24.4;;;18.5;;
37365;SDS011;23239;51.504;7.456;2023-02-03T00:45:00;24.4;;;18.5;;
37365;SDS011;23239;51.504;7.456;2023-02-03T00:46:00;24.0;;;17.9;;
37365;SDS011;23239;51.504;7.456;2023-02-03T00:47:00;24.0;;;17.9;;
37365;SDS011;23239;51.504;7.456;2023-02-03T00:48:00;24.0;;;17.9;;
37365;SDS011;23239;51.504;7.456;2023-02-03T00:49:00;24.0;;;17.9;;
37365;SDS011;23239;51.504;7.456;2023-02-03T00:50:00;24.0;;;17.9;;
37365;SDS011;23239;51.504;7.456;2023-02-03T00:51:00;22.5;;;17.3;;
37365;SDS011;23239;51.504;7.456;2023-02-03T00:52:00;22.5;;;17.3;;
37365;SDS011;23239;51.504;7.456;2023-02-03T00:53:00;22.5;;;17.3;;
37365;SDS011;23239;51.504;7.456;2023-02-03T00:54:00;22.5;;;17.3;;
37365;SDS011;23239;51.504;7.456;2023-02-03T00:55:00;22.5;;;17.3;;
37365;SDS011;23239;51.504;7.456;2023-02-03T00:56:00;24.5;;;17.9;;
37365;SDS011;23239;51.504;7.456;2023-02-03T00:57:00;24.5;;;17.9;;
37365;SDS011;23239;51.504;7.456;2023-02-03T00:58:00;24.5;;;17.9;;
37365;SDS011;23239;51.504;7.456;2023-02-03T00:59:00;24.5;;;17.9;;
37365;SDS011;23239;51.504;7.456;2023-02-03T01:00:00;24.5;;;17.9;;
37365;SDS011;23239;51.504;7.456;2023-02-03T01:01:00;24.7;;;16.6;;
37365;SDS011;23239;51.504;7.456;2023-02-03T01:02:00;24.7;;;16.6;;
37365;SDS011;23239;51.504;7.456;2023-02-03T01:03:00;24.7;;;16.6;;
37365;SDS011;23239;51.504;7.456;2023-02-03T01:04:00;24.7;;;16.6;;
37365;SDS011;23239;51.504;7.456;2023-02-03T01:05:00;24.7;;;16.6;;
37365;SDS011;23239;51.504;7.456;2023-02-03T01:06:08;23.9;;;17.9;;
37365;SDS011;23239;51.504;7.456;2023-02-03T01:07:00;23.9;;;17.9;;
37365;SDS011;23239;51.504;7.456;2023-02-03T01:08:00;23.9;;;17.9;;
37365;SDS011;23239;51.504;7.456;2023-02-03T01:09:00;23.9;;;17.9;;
37365;SDS011;23239;51.504;7.456;2023-02-03T01:10:00;23.9;;;17.9;;
37365;SDS011;23239;51.504;7.456;2023-02-03T01:11:04;21.4;;;16.4;;
37365;SDS011;23239;51.504;7.456;2023-02-03T01:12:00;21.4;;;16.4;;
37365;SDS011;23239;51.504;7.456;2023-02-03T01:13:00;21.4;;;16.4;;
37365;SDS011;23239;51.504;7.456;2023-02-03T01:14:00;21.4;;;16.4;;
37365;SDS011;23239;51.504;7.456;2023-02-03T01:15:00;21.4;;;16.4;;
37365;SDS011;23239;51.504;7.456;2023-02-03T01:16:00;25.1;;;17.9;;
37365;SDS011;23239;51.504;7.456;2023-02-03T01:17:00;25.1;;;17.9;;
37365;SDS011;23239;51.504;7.456;2023-02-03T01:18:00;25.1;;;17.9;;
37365;SDS011;23239;51.504;7.456;2023-02-03T01:19:00;25.1;;;17.9;;
37365;SDS011;23239;51.504;7.456;2023-02-03T01:20:00;25.1;;;17.9;;
37365;SDS011;23239;51.504;7.456;2023-02-03T01:21:03;23.9;;;16.1;;
37365;SDS011;23239;51.504;7.456;2023-02-03T01:22:00;23.9;;;16.1;;
37365;SDS011;23239;51.504;7.456;2023-02-03T01:23:00;23.9;;;16.1;;
37365;SDS011;23239;51.504;7.456;2023-02-03T01:24:00;23.9;;;16.1;;
37365;SDS011;23239;51.504;7.456;2023-02-03T01:25:00;23.9;;;16.1;;
37365;SDS011;23239;51.504;7.456;2023-02-03T01:26:02;24.9;;;16.8;;
37365;SDS011;23239;51.504;7.456;2023-02-03T01:27:00;24.9;;;16.8;;
37365;SDS011;23239;51.504;7.456;2023-02-03T01:28:00;24.9;;;16.8;;
37365;SDS011;23239;51.504;7.456;2023-02-03T01:29:00;24.9;;;16.8;;
37365;SDS011;23239;51.504;7.456;2023-02-03T01:30:00;24.9;;;16.8;;
37365;SDS011;23239;51.504;7.456;2023-02-03T01:31:07;25.3;;;17.0;;
37365;SDS011;23239;51.504;7.456;2023-02-03T01:32:00;25.3;;;17.0;;
37365;SDS011;23239;51.504;7.456;2023-02-03T01:33:00;25.3;;;17.0;;
37365;SDS011;23239;51.504;7.456;2023-02-03T01:34:00;25.3;;;17.0;;
37365;SDS011;23239;51.504;7.456;2023-02-03T01:35:00;25.3;;;17.0;;
37365;SDS011;23239;51.504;7.456;2023-02-03T01:36:00;25.7;;;18.1;;
37365;SDS011;23239;51.504;7.456;2023-02-03T01:37:00;25.7;;;18.1;;
37365;SDS011;23239;51.504;7.456;2023-02-03T01:38:00;25.7;;;18.1;;
37365;SDS011;23239;51.504;7.456;2023-02-03T01:39:00;25.7;;;18.1;;
37365;SDS011;23239;51.504;7.456;2023-02-03T01:40:00;25.7;;;18.1;;
37365;SDS011;23239;51.504;7.456;2023-02-03T01:41:00;25.2;;;16.7;;
37365;SDS011;23239;51.504;7.456;2023-02-03T01:42:00;25.2;;;16.7;;
37365;SDS011;23239;51.504;7.456;2023-02-03T01:43:00;25.2;;;16.7;;
37365;SDS011;23239;51.504;7.456;2023-02-03T01:44:00;25.2;;;16.7;;
37365;SDS011;23239;51.504;7.456;2023-02-03T01:45:00;25.2;;;16.7;;
37365;SDS011;23239;51.504;7.456;2023-02-03T01:46:01;25.9;;;17.0;;
37365;SDS011;23239;51.504;7.456;2023-02-03T01:47:00;25.9;;;17.0;;
37365;SDS011;23239;51.504;7.456;2023-02-03T01:48:00;25.9;;;17.0;;
37365;SDS011;23239;51.504;7.456;2023-02-03T01:49:02;25.9;;;17.0;;
37365;SDS011;23239;51.504;7.456;2023-02-03T01:50:02;25.9;;;17.0;;
37365;SDS011;23239;51.504;7.456;2023-02-03T01:51:00;24.6;;;17.1;;
37365;SDS011;23239;51.504;7.456;2023-02-03T01:52:00;24.6;;;17.1;;
37365;SDS011;23239;51.504;7.456;2023-02-03T01:53:01;24.6;;;17.1;;
37365;SDS011;23239;51.504;7.456;2023-02-03T01:54:00;24.6;;;17.1;;
37365;SDS011;23239;51.504;7.456;2023-02-03T01:55:01;24.6;;;17.1;;
37365;SDS011;23239;51.504;7.456;2023-02-03T01:56:00;25.2;;;17.6;;
37365;SDS011;23239;51.504;7.456;2023-02-03T01:57:02;25.2;;;17.6;;
37365;SDS011;23239;51.504;7.456;2023-02-03T01:58:00;25.2;;;17.6;;
37365;SDS011;23239;51.504;7.456;2023-02-03T01:59:00;25.2;;;17.6;;
37365;SDS011;23239;51.504;7.456;2023-02-03T02:00:00;25.2;;;17.6;;
37365;SDS011;23239;51.504;7.456;2023-02-03T02:01:00;23.9;;;17.6;;
37365;SDS011;23239;51.504;7.456;2023-02-03T02:02:00;23.9;;;17.6;;
37365;SDS011;23239;51.504;7.456;2023-02-03T02:03:00;23.9;;;17.6;;
37365;SDS011;23239;51.504;7.456;2023-02-03T02:04:00;23.9;;;17.6;;
37365;SDS011;23239;51.504;7.456;2023-02-03T02:05:02;23.9;;;17.6;;
37365;SDS011;23239;51.504;7.456;2023-02-03T02:06:01;20.9;;;16.9;;
37365;SDS011;23239;51.504;7.456;2023-02-03T02:07:00;20.9;;;16.9;;
37365;SDS011;23239;51.504;7.456;2023-02-03T02:08:00;20.9;;;16.9;;
37365;SDS011;23239;51.504;7.456;2023-02-03T02:09:00;20.9;;;16.9;;
37365;SDS011;23239;51.504;7.456;2023-02-03T02:10:00;20.9;;;16.9;;
37365;SDS011;23239;51.504;7.456;2023-02-03T02:11:00;26.4;;;17.9;;
37365;SDS011;23239;51.504;7.456;2023-02-03T02:12:00;26.4;;;17.9;;
37365;SDS011;23239;51.504;7.456;2023-02-03T02:13:00;26.4;;;17.9;;
37365;SDS011;23239;51.504;7.456;2023-02-03T02:14:00;26.4;;;17.9;;
37365;SDS011;23239;51.504;7.456;2023-02-03T02:15:00;26.4;;;17.9;;
37365;SDS011;23239;51.504;7.456;2023-02-03T02:16:02;24.8;;;17.2;;
37365;SDS011;23239;51.504;7.456;2023-02-03T02:17:02;24.8;;;17.2;;
37365;SDS011;23239;51.504;7.456;2023-02-03T02:18:03;24.8;;;17.2;;
37365;SDS011;23239;51.504;7.456;2023-02-03T02:19:04;24.8;;;17.2;;
37365;SDS011;23239;51.504;7.456;2023-02-03T02:20:09;24.8;;;17.2;;
37365;SDS011;23239;51.504;7.456;2023-02-03T02:21:07;23.0;;;15.9;;
37365;SDS011;23239;51.504;7.456;2023-02-03T02:22:03;23.0;;;15.9;;
37365;SDS011;23239;51.504;7.456;2023-02-03T02:25:03;23.0;;;15.9;;
37365;SDS011;23239;51.504;7.456;2023-02-03T02:26:06;20.1;;;14.8;;
37365;SDS011;23239;51.504;7.456;2023-02-03T02:27:01;20.1;;;14.8;;
37365;SDS011;23239;51.504;7.456;2023-02-03T02:29:03;20.1;;;14.8;;
37365;SDS011;23239;51.504;7.456;2023-02-03T02:31:05;24.0;;;15.9;;
37365;SDS011;23239;51.504;7.456;2023-02-03T02:32:04;24.0;;;15.9;;
37365;SDS011;23239;51.504;7.456;2023-02-03T02:33:01;24.0;;;15.9;;
37365;SDS011;23239;51.504;7.456;2023-02-03T02:34:01;24.0;;;15.9;;
37365;SDS011;23239;51.504;7.456;2023-02-03T02:35:01;24.0;;;15.9;;
37365;SDS011;23239;51.504;7.456;2023-02-03T02:36:02;21.9;;;15.5;;
37365;SDS011;23239;51.504;7.456;2023-02-03T02:37:01;21.9;;;15.5;;
37365;SDS011;23239;51.504;7.456;2023-02-03T02:38:01;21.9;;;15.5;;
37365;SDS011;23239;51.504;7.456;2023-02-03T02:39:01;21.9;;;15.5;;
37365;SDS011;23239;51.504;7.456;2023-02-03T02:40:02;21.9;;;15.5;;
37365;SDS011;23239;51.504;7.456;2023-02-03T02:41:01;20.8;;;15.0;;
37365;SDS011;23239;51.504;7.456;2023-02-03T02:42:01;20.8;;;15.0;;
37365;SDS011;23239;51.504;7.456;2023-02-03T02:43:01;20.8;;;15.0;;
37365;SDS011;23239;51.504;7.456;2023-02-03T02:44:00;20.8;;;15.0;;
37365;SDS011;23239;51.504;7.456;2023-02-03T02:45:03;20.8;;;15.0;;
37365;SDS011;23239;51.504;7.456;2023-02-03T02:46:00;22.2;;;14.3;;
37365;SDS011;23239;51.504;7.456;2023-02-03T02:47:01;22.2;;;14.3;;
37365;SDS011;23239;51.504;7.456;2023-02-03T02:48:01;22.2;;;14.3;;
37365;SDS011;23239;51.504;7.456;2023-02-03T02:49:00;22.2;;;14.3;;
37365;SDS011;23239;51.504;7.456;2023-02-03T02:50:02;22.2;;;14.3;;
37365;SDS011;23239;51.504;7.456;2023-02-03T02:51:00;21.4;;;14.6;;
37365;SDS011;23239;51.504;7.456;2023-02-03T02:52:01;21.4;;;14.6;;
37365;SDS011;23239;51.504;7.456;2023-02-03T02:53:00;21.4;;;14.6;;
37365;SDS011;23239;51.504;7.456;2023-02-03T02:54:01;21.4;;;14.6;;
37365;SDS011;23239;51.504;7.456;2023-02-03T02:55:01;21.4;;;14.6;;
37365;SDS011;23239;51.504;7.456;2023-02-03T02:56:01;21.3;;;13.5;;
37365;SDS011;23239;51.504;7.456;2023-02-03T02:57:00;21.3;;;13.5;;
37365;SDS011;23239;51.504;7.456;2023-02-03T02:58:01;21.3;;;13.5;;
37365;SDS011;23239;51.504;7.456;2023-02-03T02:59:00;21.3;;;13.5;;
37365;SDS011;23239;51.504;7.456;2023-02-03T03:00:00;21.3;;;13.5;;
37365;SDS011;23239;51.504;7.456;2023-02-03T03:01:00;21.2;;;13.3;;
37365;SDS011;23239;51.504;7.456;2023-02-03T03:02:00;21.2;;;13.3;;
37365;SDS011;23239;51.504;7.456;2023-02-03T03:03:06;21.2;;;13.3;;
37365;SDS011;23239;51.504;7.456;2023-02-03T03:04:01;21.2;;;13.3;;
37365;SDS011;23239;51.504;7.456;2023-02-03T03:05:00;21.2;;;13.3;;
37365;SDS011;23239;51.504;7.456;2023-02-03T03:06:01;21.5;;;13.2;;
37365;SDS011;23239;51.504;7.456;2023-02-03T03:07:00;21.5;;;13.2;;
37365;SDS011;23239;51.504;7.456;2023-02-03T03:08:00;21.5;;;13.2;;
37365;SDS011;23239;51.504;7.456;2023-02-03T03:09:01;21.5;;;13.2;;
37365;SDS011;23239;51.504;7.456;2023-02-03T03:10:02;21.5;;;13.2;;
37365;SDS011;23239;51.504;7.456;2023-02-03T03:11:00;18.2;;;11.7;;
37365;SDS011;23239;51.504;7.456;2023-02-03T03:12:01;18.2;;;11.7;;
37365;SDS011;23239;51.504;7.456;2023-02-03T03:13:00;18.2;;;11.7;;
37365;SDS011;23239;51.504;7.456;2023-02-03T03:14:00;18.2;;;11.7;;
37365;SDS011;23239;51.504;7.456;2023-02-03T03:15:01;18.2;;;11.7;;
37365;SDS011;23239;51.504;7.456;2023-02-03T03:16:00;17.5;;;11.2;;
37365;SDS011;23239;51.504;7.456;2023-02-03T03:17:01;17.5;;;11.2;;
37365;SDS011;23239;51.504;7.456;2023-02-03T03:18:02;17.5;;;11.2;;
37365;SDS011;23239;51.504;7.456;2023-02-03T03:19:01;17.5;;;11.2;;
37365;SDS011;23239;51.504;7.456;2023-02-03T03:20:00;17.5;;;11.2;;
37365;SDS011;23239;51.504;7.456;2023-02-03T03:21:00;17.6;;;11.8;;
37365;SDS011;23239;51.504;7.456;2023-02-03T03:22:01;17.6;;;11.8;;
37365;SDS011;23239;51.504;7.456;2023-02-03T03:23:01;17.6;;;11.8;;
37365;SDS011;23239;51.504;7.456;2023-02-03T03:24:01;17.6;;;11.8;;
37365;SDS011;23239;51.504;7.456;2023-02-03T03:25:02;17.6;;;11.8;;
37365;SDS011;23239;51.504;7.456;2023-02-03T03:26:02;20.1;;;11.2;;
37365;SDS011;23239;51.504;7.456;2023-02-03T03:27:02;20.1;;;11.2;;
37365;SDS011;23239;51.504;7.456;2023-02-03T03:28:01;20.1;;;11.2;;
37365;SDS011;23239;51.504;7.456;2023-02-03T03:29:02;20.1;;;11.2;;
37365;SDS011;23239;51.504;7.456;2023-02-03T03:30:00;20.1;;;11.2;;
37365;SDS011;23239;51.504;7.456;2023-02-03T03:31:00;16.7;;;10.9;;
37365;SDS011;23239;51.504;7.456;2023-02-03T03:32:00;16.7;;;10.9;;
37365;SDS011;23239;51.504;7.456;2023-02-03T03:33:00;16.7;;;10.9;;
37365;SDS011;23239;51.504;7.456;2023-02-03T03:34:00;16.7;;;10.9;;
37365;SDS011;23239;51.504;7.456;2023-02-03T03:35:00;16.7;;;10.9;;
37365;SDS011;23239;51.504;7.456;2023-02-03T03:36:02;15.7;;;10.5;;
37365;SDS011;23239;51.504;7.456;2023-02-03T03:37:01;15.7;;;10.5;;
37365;SDS011;23239;51.504;7.456;2023-02-03T03:38:02;15.7;;;10.5;;
37365;SDS011;23239;51.504;7.456;2023-02-03T03:39:01;15.7;;;10.5;;
37365;SDS011;23239;51.504;7.456;2023-02-03T03:40:01;15.7;;;10.5;;
37365;SDS011;23239;51.504;7.456;2023-02-03T03:41:00;15.6;;;9.4;;
37365;SDS011;23239;51.504;7.456;2023-02-03T03:42:02;15.6;;;9.4;;
37365;SDS011;23239;51.504;7.456;2023-02-03T03:43:01;15.6;;;9.4;;
37365;SDS011;23239;51.504;7.456;2023-02-03T03:44:01;15.6;;;9.4;;
37365;SDS011;23239;51.504;7.456;2023-02-03T03:45:01;15.6;;;9.4;;
37365;SDS011;23239;51.504;7.456;2023-02-03T03:46:00;16.4;;;9.4;;
37365;SDS011;23239;51.504;7.456;2023-02-03T03:47:02;16.4;;;9.4;;
37365;SDS011;23239;51.504;7.456;2023-02-03T03:48:02;16.4;;;9.4;;
37365;SDS011;23239;51.504;7.456;2023-02-03T03:49:01;16.4;;;9.4;;
37365;SDS011;23239;51.504;7.456;2023-02-03T03:50:00;16.4;;;9.4;;
37365;SDS011;23239;51.504;7.456;2023-02-03T03:51:01;12.5;;;8.4;;
37365;SDS011;23239;51.504;7.456;2023-02-03T03:52:01;12.5;;;8.4;;
37365;SDS011;23239;51.504;7.456;2023-02-03T03:53:00;12.5;;;8.4;;
37365;SDS011;23239;51.504;7.456;2023-02-03T03:54:01;12.5;;;8.4;;
37365;SDS011;23239;51.504;7.456;2023-02-03T03:55:00;12.5;;;8.4;;
37365;SDS011;23239;51.504;7.456;2023-02-03T03:56:00;15.7;;;8.5;;
37365;SDS011;23239;51.504;7.456;2023-02-03T03:57:01;15.7;;;8.5;;
37365;SDS011;23239;51.504;7.456;2023-02-03T03:58:00;15.7;;;8.5;;
37365;SDS011;23239;51.504;7.456;2023-02-03T03:59:00;15.7;;;8.5;;
37365;SDS011;23239;51.504;7.456;2023-02-03T04:00:00;15.7;;;8.5;;
37365;SDS011;23239;51.504;7.456;2023-02-03T04:01:01;13.2;;;8.0;;
37365;SDS011;23239;51.504;7.456;2023-02-03T04:02:00;13.2;;;8.0;;
37365;SDS011;23239;51.504;7.456;2023-02-03T04:03:01;13.2;;;8.0;;
37365;SDS011;23239;51.504;7.456;2023-02-03T04:04:01;13.2;;;8.0;;
37365;SDS011;23239;51.504;7.456;2023-02-03T04:05:00;13.2;;;8.0;;
37365;SDS011;23239;51.504;7.456;2023-02-03T04:06:00;11.6;;;7.7;;
37365;SDS011;23239;51.504;7.456;2023-02-03T04:07:00;11.6;;;7.7;;
37365;SDS011;23239;51.504;7.456;2023-02-03T04:08:00;11.6;;;7.7;;
37365;SDS011;23239;51.504;7.456;2023-02-03T04:09:00;11.6;;;7.7;;
37365;SDS011;23239;51.504;7.456;2023-02-03T04:10:00;11.6;;;7.7;;
37365;SDS011;23239;51.504;7.456;2023-02-03T04:11:00;12.3;;;7.1;;
37365;SDS011;23239;51.504;7.456;2023-02-03T04:12:00;12.3;;;7.1;;
37365;SDS011;23239;51.504;7.456;2023-02-03T04:13:00;12.3;;;7.1;;
37365;SDS011;23239;51.504;7.456;2023-02-03T04:14:00;12.3;;;7.1;;
37365;SDS011;23239;51.504;7.456;2023-02-03T04:15:00;12.3;;;7.1;;
37365;SDS011;23239;51.504;7.456;2023-02-03T04:16:00;17.3;;;7.5;;
37365;SDS011;23239;51.504;7.456;2023-02-03T04:17:00;17.3;;;7.5;;
37365;SDS011;23239;51.504;7.456;2023-02-03T04:18:00;17.3;;;7.5;;
37365;SDS011;23239;51.504;7.456;2023-02-03T04:19:00;17.3;;;7.5;;
37365;SDS011;23239;51.504;7.456;2023-02-03T04:20:00;17.3;;;7.5;;
37365;SDS011;23239;51.504;7.456;2023-02-03T04:21:00;12.4;;;6.5;;
37365;SDS011;23239;51.504;7.456;2023-02-03T04:22:00;12.4;;;6.5;;
37365;SDS011;23239;51.504;7.456;2023-02-03T04:23:00;12.4;;;6.5;;
37365;SDS011;23239;51.504;7.456;2023-02-03T04:24:00;12.4;;;6.5;;
37365;SDS011;23239;51.504;7.456;2023-02-03T04:25:00;12.4;;;6.5;;
37365;SDS011;23239;51.504;7.456;2023-02-03T04:26:00;12.7;;;6.3;;
37365;SDS011;23239;51.504;7.456;2023-02-03T04:27:00;12.7;;;6.3;;
37365;SDS011;23239;51.504;7.456;2023-02-03T04:28:00;12.7;;;6.3;;
37365;SDS011;23239;51.504;7.456;2023-02-03T04:29:00;12.7;;;6.3;;
37365;SDS011;23239;51.504;7.456;2023-02-03T04:30:00;12.7;;;6.3;;
37365;SDS011;23239;51.504;7.456;2023-02-03T04:31:00;15.2;;;6.3;;
37365;SDS011;23239;51.504;7.456;2023-02-03T04:32:00;15.2;;;6.3;;
37365;SDS011;23239;51.504;7.456;2023-02-03T04:33:00;15.2;;;6.3;;
37365;SDS011;23239;51.504;7.456;2023-02-03T04:34:00;15.2;;;6.3;;
37365;SDS011;23239;51.504;7.456;2023-02-03T04:35:00;15.2;;;6.3;;
37365;SDS011;23239;51.504;7.456;2023-02-03T04:36:00;12.1;;;6.3;;
37365;SDS011;23239;51.504;7.456;2023-02-03T04:37:00;12.1;;;6.3;;
37365;SDS011;23239;51.504;7.456;2023-02-03T04:38:00;12.1;;;6.3;;
37365;SDS011;23239;51.504;7.456;2023-02-03T04:39:00;12.1;;;6.3;;
37365;SDS011;23239;51.504;7.456;2023-02-03T04:40:00;12.1;;;6.3;;
37365;SDS011;23239;51.504;7.456;2023-02-03T04:41:00;12.4;;;6.1;;
37365;SDS011;23239;51.504;7.456;2023-02-03T04:42:00;12.4;;;6.1;;
37365;SDS011;23239;51.504;7.456;2023-02-03T04:43:04;12.4;;;6.1;;
37365;SDS011;23239;51.504;7.456;2023-02-03T04:44:00;12.4;;;6.1;;
37365;SDS011;23239;51.504;7.456;2023-02-03T04:45:00;12.4;;;6.1;;
37365;SDS011;23239;51.504;7.456;2023-02-03T04:46:00;10.4;;;5.4;;
37365;SDS011;23239;51.504;7.456;2023-02-03T04:47:00;10.4;;;5.4;;
37365;SDS011;23239;51.504;7.456;2023-02-03T04:48:00;10.4;;;5.4;;
37365;SDS011;23239;51.504;7.456;2023-02-03T04:49:00;10.4;;;5.4;;
37365;SDS011;23239;51.504;7.456;2023-02-03T04:50:00;10.4;;;5.4;;
37365;SDS011;23239;51.504;7.456;2023-02-03T04:51:00;13.6;;;6.2;;
37365;SDS011;23239;51.504;7.456;2023-02-03T04:52:00;13.6;;;6.2;;
37365;SDS011;23239;51.504;7.456;2023-02-03T04:53:00;13.6;;;6.2;;
37365;SDS011;23239;51.504;7.456;2023-02-03T04:54:00;13.6;;;6.2;;
37365;SDS011;23239;51.504;7.456;2023-02-03T04:55:00;13.6;;;6.2;;
37365;SDS011;23239;51.504;7.456;2023-02-03T04:56:01;11.4;;;5.9;;
37365;SDS011;23239;51.504;7.456;2023-02-03T04:57:00;11.4;;;5.9;;
37365;SDS011;23239;51.504;7.456;2023-02-03T04:58:00;11.4;;;5.9;;
37365;SDS011;23239;51.504;7.456;2023-02-03T04:59:00;11.4;;;5.9;;
37365;SDS011;23239;51.504;7.456;2023-02-03T05:00:00;11.4;;;5.9;;
37365;SDS011;23239;51.504;7.456;2023-02-03T05:01:04;12.3;;;5.5;;
37365;SDS011;23239;51.504;7.456;2023-02-03T05:02:00;12.3;;;5.5;;
37365;SDS011;23239;51.504;7.456;2023-02-03T05:03:00;12.3;;;5.5;;
37365;SDS011;23239;51.504;7.456;2023-02-03T05:04:00;12.3;;;5.5;;
37365;SDS011;23239;51.504;7.456;2023-02-03T05:05:00;12.3;;;5.5;;
37365;SDS011;23239;51.504;7.456;2023-02-03T05:06:00;10.8;;;5.9;;
37365;SDS011;23239;51.504;7.456;2023-02-03T05:07:00;10.8;;;5.9;;
37365;SDS011;23239;51.504;7.456;2023-02-03T05:08:00;10.8;;;5.9;;
37365;SDS011;23239;51.504;7.456;2023-02-03T05:09:00;10.8;;;5.9;;
37365;SDS011;23239;51.504;7.456;2023-02-03T05:10:00;10.8;;;5.9;;
37365;SDS011;23239;51.504;7.456;2023-02-03T05:11:00;10.1;;;5.5;;
37365;SDS011;23239;51.504;7.456;2023-02-03T05:12:00;10.1;;;5.5;;
37365;SDS011;23239;51.504;7.456;2023-02-03T05:13:00;10.1;;;5.5;;
37365;SDS011;23239;51.504;7.456;2023-02-03T05:14:00;10.1;;;5.5;;
37365;SDS011;23239;51.504;7.456;2023-02-03T05:15:00;10.1;;;5.5;;
37365;SDS011;23239;51.504;7.456;2023-02-03T05:16:00;15.4;;;5.9;;
37365;SDS011;23239;51.504;7.456;2023-02-03T05:17:00;15.4;;;5.9;;
37365;SDS011;23239;51.504;7.456;2023-02-03T05:18:00;15.4;;;5.9;;
37365;SDS011;23239;51.504;7.456;2023-02-03T05:19:00;15.4;;;5.9;;
37365;SDS011;23239;51.504;7.456;2023-02-03T05:20:00;15.4;;;5.9;;
37365;SDS011;23239;51.504;7.456;2023-02-03T05:21:00;12.3;;;6.3;;
37365;SDS011;23239;51.504;7.456;2023-02-03T05:22:00;12.3;;;6.3;;
37365;SDS011;23239;51.504;7.456;2023-02-03T05:23:00;12.3;;;6.3;;
37365;SDS011;23239;51.504;7.456;2023-02-03T05:24:00;12.3;;;6.3;;
37365;SDS011;23239;51.504;7.456;2023-02-03T05:25:00;12.3;;;6.3;;
37365;SDS011;23239;51.504;7.456;2023-02-03T05:26:00;11.2;;;6.0;;
37365;SDS011;23239;51.504;7.456;2023-02-03T05:27:00;11.2;;;6.0;;
37365;SDS011;23239;51.504;7.456;2023-02-03T05:28:00;11.2;;;6.0;;
37365;SDS011;23239;51.504;7.456;2023-02-03T05:29:00;11.2;;;6.0;;
37365;SDS011;23239;51.504;7.456;2023-02-03T05:30:00;11.2;;;6.0;;
37365;SDS011;23239;51.504;7.456;2023-02-03T05:31:00;10.8;;;5.8;;
37365;SDS011;23239;51.504;7.456;2023-02-03T05:32:00;10.8;;;5.8;;
37365;SDS011;23239;51.504;7.456;2023-02-03T05:33:00;10.8;;;5.8;;
37365;SDS011;23239;51.504;7.456;2023-02-03T05:34:00;10.8;;;5.8;;
37365;SDS011;23239;51.504;7.456;2023-02-03T05:35:00;10.8;;;5.8;;
37365;SDS011;23239;51.504;7.456;2023-02-03T05:36:00;15.8;;;6.2;;
37365;SDS011;23239;51.504;7.456;2023-02-03T05:37:00;15.8;;;6.2;;
37365;SDS011;23239;51.504;7.456;2023-02-03T05:38:00;15.8;;;6.2;;
37365;SDS011;23239;51.504;7.456;2023-02-03T05:39:00;15.8;;;6.2;;
37365;SDS011;23239;51.504;7.456;2023-02-03T05:40:00;15.8;;;6.2;;
37365;SDS011;23239;51.504;7.456;2023-02-03T05:41:00;10.4;;;6.0;;
37365;SDS011;23239;51.504;7.456;2023-02-03T05:42:00;10.4;;;6.0;;
37365;SDS011;23239;51.504;7.456;2023-02-03T05:43:00;10.4;;;6.0;;
37365;SDS011;23239;51.504;7.456;2023-02-03T05:44:00;10.4;;;6.0;;
37365;SDS011;23239;51.504;7.456;2023-02-03T05:45:00;10.4;;;6.0;;
37365;SDS011;23239;51.504;7.456;2023-02-03T05:46:00;11.7;;;5.5;;
37365;SDS011;23239;51.504;7.456;2023-02-03T05:47:00;11.7;;;5.5;;
37365;SDS011;23239;51.504;7.456;2023-02-03T05:48:00;11.7;;;5.5;;
37365;SDS011;23239;51.504;7.456;2023-02-03T05:49:00;11.7;;;5.5;;
37365;SDS011;23239;51.504;7.456;2023-02-03T05:50:00;11.7;;;5.5;;
37365;SDS011;23239;51.504;7.456;2023-02-03T05:51:00;12.0;;;5.6;;
37365;SDS011;23239;51.504;7.456;2023-02-03T05:52:00;12.0;;;5.6;;
37365;SDS011;23239;51.504;7.456;2023-02-03T05:53:00;12.0;;;5.6;;
37365;SDS011;23239;51.504;7.456;2023-02-03T05:54:00;12.0;;;5.6;;
37365;SDS011;23239;51.504;7.456;2023-02-03T05:55:00;12.0;;;5.6;;
37365;SDS011;23239;51.504;7.456;2023-02-03T05:56:00;11.6;;;5.2;;
37365;SDS011;23239;51.504;7.456;2023-02-03T05:57:00;11.6;;;5.2;;
37365;SDS011;23239;51.504;7.456;2023-02-03T05:58:00;11.6;;;5.2;;
37365;SDS011;23239;51.504;7.456;2023-02-03T05:59:00;11.6;;;5.2;;
37365;SDS011;23239;51.504;7.456;2023-02-03T06:00:00;11.6;;;5.2;;
37365;SDS011;23239;51.504;7.456;2023-02-03T06:01:00;10.9;;;5.0;;
37365;SDS011;23239;51.504;7.456;2023-02-03T06:02:00;10.9;;;5.0;;
37365;SDS011;23239;51.504;7.456;2023-02-03T06:03:01;10.9;;;5.0;;
37365;SDS011;23239;51.504;7.456;2023-02-03T06:04:00;10.9;;;5.0;;
37365;SDS011;23239;51.504;7.456;2023-02-03T06:05:00;10.9;;;5.0;;
37365;SDS011;23239;51.504;7.456;2023-02-03T06:06:00;10.6;;;4.7;;
37365;SDS011;23239;51.504;7.456;2023-02-03T06:07:00;10.6;;;4.7;;